Time;durP1;ratioP1;P1;durP2;ratioP2;P2;SDS_P1;SDS_P2;PMS_P1;PMS_P2;Temp;Humidity;BMP_temperature;BMP_pressure;BME280_temperature;BME280_humidity;BME280_pressure;Samples;Min_cycle;Max_cycle;Signal;HPM_P1;HPM_P2
2021/04/28 00:02:25;;;;;;;62.08;8.05;;;6.90;1.00;;;;;;5091282;28;20296;-67
2021/04/28 00:04:51;;;;;;;61.95;8.10;;;6.80;1.00;;;;;;5091795;28;20601;-67
2021/04/28 00:07:19;;;;;;;64.68;8.27;;;6.80;1.00;;;;;;5091826;28;20604;-67
2021/04/28 00:09:45;;;;;;;69.40;8.77;;;6.70;1.00;;;;;;5091579;28;20235;-67
2021/04/28 00:12:11;;;;;;;63.78;8.23;;;6.70;1.00;;;;;;5091141;28;20242;-68
2021/04/28 00:14:38;;;;;;;65.35;9.45;;;6.60;1.00;;;;;;5091391;28;20244;-67
2021/04/28 00:17:04;;;;;;;64.00;9.18;;;6.60;1.00;;;;;;5091357;28;20373;-67
2021/04/28 00:19:32;;;;;;;63.97;8.95;;;6.60;1.00;;;;;;5091549;28;20232;-67
2021/04/28 00:21:58;;;;;;;63.08;8.30;;;6.50;1.00;;;;;;5095425;28;20232;-67
2021/04/28 00:24:26;;;;;;;62.72;8.25;;;6.50;1.00;;;;;;5095492;28;20290;-67
2021/04/28 00:26:52;;;;;;;67.25;8.52;;;6.50;1.00;;;;;;5095748;28;20196;-67
2021/04/28 00:29:18;;;;;;;62.33;8.00;;;6.40;1.00;;;;;;5095382;28;20284;-67
2021/04/28 00:31:45;;;;;;;65.22;9.35;;;6.40;1.00;;;;;;5095386;28;20206;-67
2021/04/28 00:34:11;;;;;;;63.80;8.70;;;6.40;1.00;;;;;;5094852;28;20734;-67
2021/04/28 00:36:38;;;;;;;64.75;8.30;;;6.30;1.00;;;;;;5095110;28;20204;-68
2021/04/28 00:39:05;;;;;;;62.78;8.35;;;6.30;1.00;;;;;;5095288;28;20695;-67
2021/04/28 00:41:32;;;;;;;63.25;8.23;;;6.30;1.00;;;;;;5095215;28;20200;-67
2021/04/28 00:43:58;;;;;;;61.75;7.90;;;6.20;1.00;;;;;;5094731;28;20208;-67
2021/04/28 00:46:25;;;;;;;62.83;8.02;;;6.30;1.00;;;;;;5094902;28;20784;-67
2021/04/28 00:48:51;;;;;;;61.90;7.82;;;6.30;1.00;;;;;;5095273;28;20303;-67
2021/04/28 00:51:17;;;;;;;68.03;8.35;;;6.20;1.00;;;;;;5094824;28;20323;-67
2021/04/28 00:53:44;;;;;;;63.80;8.63;;;6.30;1.00;;;;;;5094529;28;20204;-67
2021/04/28 00:56:11;;;;;;;62.78;9.18;;;6.20;1.00;;;;;;5094906;28;20291;-67
2021/04/28 00:58:39;;;;;;;63.30;8.80;;;6.20;1.00;;;;;;5094630;28;20815;-67
2021/04/28 01:01:06;;;;;;;62.97;7.85;;;6.20;1.00;;;;;;5094753;28;20228;-67
2021/04/28 01:03:34;;;;;;;62.80;9.00;;;6.10;1.00;;;;;;5094067;28;20308;-67
2021/04/28 01:06:03;;;;;;;63.88;8.45;;;6.10;1.00;;;;;;5094959;28;20234;-67
2021/04/28 01:08:30;;;;;;;64.32;8.20;;;6.10;1.00;;;;;;5094791;28;20295;-67
2021/04/28 01:10:57;;;;;;;63.72;9.10;;;6.10;1.00;;;;;;5094551;28;20263;-67
2021/04/28 01:13:24;;;;;;;63.53;8.65;;;6.00;1.00;;;;;;5094200;28;20337;-67
2021/04/28 01:15:53;;;;;;;62.58;8.55;;;6.00;1.00;;;;;;5094161;28;20208;-67
2021/04/28 01:18:20;;;;;;;64.95;8.60;;;5.90;1.00;;;;;;5094638;28;20228;-67
2021/04/28 01:20:47;;;;;;;64.45;9.02;;;5.90;1.00;;;;;;5094591;28;20397;-67
2021/04/28 01:23:16;;;;;;;63.42;9.80;;;5.90;1.00;;;;;;5094103;28;20298;-67
2021/04/28 01:25:43;;;;;;;62.72;8.07;;;5.90;1.00;;;;;;5094046;28;20204;-67
2021/04/28 01:28:12;;;;;;;61.20;7.85;;;5.90;1.00;;;;;;5094208;28;20751;-67
2021/04/28 01:30:42;;;;;;;61.72;9.20;;;5.80;1.00;;;;;;5094387;28;20654;-67
2021/04/28 01:33:13;;;;;;;63.20;8.60;;;5.70;1.00;;;;;;5093281;28;20232;-67
2021/04/28 01:35:41;;;;;;;63.53;8.57;;;5.70;1.00;;;;;;5093824;28;20214;-67
2021/04/28 01:38:08;;;;;;;62.53;8.38;;;5.60;1.00;;;;;;5094028;28;20566;-67
2021/04/28 01:40:36;;;;;;;63.78;9.00;;;5.60;1.00;;;;;;5093862;28;20225;-67
2021/04/28 01:43:03;;;;;;;62.92;9.00;;;5.60;1.00;;;;;;5093790;28;20211;-67
2021/04/28 01:45:33;;;;;;;63.55;9.00;;;5.60;1.00;;;;;;5093826;28;20243;-67
2021/04/28 01:48:01;;;;;;;64.50;9.45;;;5.60;1.00;;;;;;5094004;28;20304;-67
2021/04/28 01:50:27;;;;;;;63.70;9.82;;;5.60;1.00;;;;;;5093857;28;20323;-67
2021/04/28 01:52:55;;;;;;;62.15;9.63;;;5.50;1.00;;;;;;5093459;28;20216;-67
2021/04/28 01:55:21;;;;;;;65.00;9.55;;;5.50;1.00;;;;;;5093446;28;20260;-67
2021/04/28 01:57:48;;;;;;;62.20;8.30;;;5.50;1.00;;;;;;5093941;28;20323;-67
2021/04/28 02:00:17;;;;;;;64.47;9.75;;;5.50;1.00;;;;;;5093582;28;20310;-67
2021/04/28 02:02:44;;;;;;;64.38;9.45;;;5.50;1.00;;;;;;5093428;28;20291;-67
2021/04/28 02:05:12;;;;;;;67.38;9.25;;;5.50;1.00;;;;;;5093469;28;20684;-67
2021/04/28 02:07:40;;;;;;;65.80;9.90;;;5.50;1.00;;;;;;5093557;28;20753;-67
2021/04/28 02:10:07;;;;;;;67.82;9.43;;;5.50;1.00;;;;;;5093307;28;20224;-67
2021/04/28 02:12:34;;;;;;;63.42;9.85;;;5.40;1.00;;;;;;5093309;28;20291;-67
2021/04/28 02:15:05;;;;;;;64.93;10.35;;;5.40;1.00;;;;;;5093306;28;20228;-67
2021/04/28 02:17:32;;;;;;;67.82;11.45;;;5.40;1.00;;;;;;5093435;28;20238;-67
2021/04/28 02:19:59;;;;;;;65.75;10.18;;;5.30;1.00;;;;;;5093047;28;20356;-68
2021/04/28 02:22:27;;;;;;;64.95;10.45;;;5.30;1.00;;;;;;5092940;28;20240;-67
2021/04/28 02:24:53;;;;;;;68.00;10.13;;;5.30;1.00;;;;;;5093235;28;20695;-66
2021/04/28 02:27:20;;;;;;;63.58;10.10;;;5.30;1.00;;;;;;5093154;28;20660;-67
2021/04/28 02:29:47;;;;;;;69.70;9.45;;;5.30;1.00;;;;;;5093278;28;20273;-67
2021/04/28 02:32:14;;;;;;;66.97;9.48;;;5.30;1.00;;;;;;5092781;28;20215;-67
2021/04/28 02:34:40;;;;;;;67.20;10.40;;;5.20;1.00;;;;;;5092935;28;20311;-67
2021/04/28 02:37:07;;;;;;;68.20;10.77;;;5.20;1.00;;;;;;5092902;28;20775;-67
2021/04/28 02:39:38;;;;;;;64.47;9.05;;;5.20;1.00;;;;;;5093092;28;20314;-67
2021/04/28 02:42:06;;;;;;;65.15;9.70;;;5.20;1.00;;;;;;5092719;28;20643;-67
2021/04/28 02:44:34;;;;;;;70.22;10.70;;;5.20;1.00;;;;;;5091769;28;20200;-67
2021/04/28 02:47:02;;;;;;;66.25;10.55;;;5.10;1.00;;;;;;5092894;28;20228;-67
2021/04/28 02:49:31;;;;;;;71.50;9.80;;;5.10;1.00;;;;;;5092524;28;20224;-67
2021/04/28 02:51:58;;;;;;;64.55;9.75;;;5.10;1.00;;;;;;5092355;28;20247;-67
2021/04/28 02:54:25;;;;;;;67.55;11.05;;;5.10;1.00;;;;;;5092505;28;20209;-67
2021/04/28 02:56:53;;;;;;;67.00;11.63;;;5.00;1.00;;;;;;5092773;28;20204;-67
2021/04/28 02:59:20;;;;;;;66.75;11.40;;;5.00;1.00;;;;;;5092454;28;20210;-67
2021/04/28 03:01:47;;;;;;;64.63;10.48;;;5.00;1.00;;;;;;5092492;28;20211;-67
2021/04/28 03:04:16;;;;;;;63.88;9.27;;;4.90;1.00;;;;;;5092448;28;20212;-67
2021/04/28 03:06:43;;;;;;;66.30;10.20;;;4.90;1.00;;;;;;5092322;28;20299;-67
2021/04/28 03:09:12;;;;;;;68.70;11.10;;;4.80;1.00;;;;;;5092390;28;20353;-67
2021/04/28 03:11:39;;;;;;;68.70;11.75;;;4.80;1.00;;;;;;5092620;28;20262;-67
2021/04/28 03:14:07;;;;;;;68.00;11.77;;;4.80;1.00;;;;;;5091761;28;20578;-67
2021/04/28 03:16:34;;;;;;;64.50;10.95;;;4.80;1.00;;;;;;5092037;28;20235;-67
2021/04/28 03:19:02;;;;;;;68.82;11.30;;;4.80;1.00;;;;;;5092143;28;20224;-66
2021/04/28 03:21:31;;;;;;;66.32;10.95;;;4.80;1.00;;;;;;5092013;28;20248;-67
2021/04/28 03:24:00;;;;;;;70.45;11.57;;;4.70;1.00;;;;;;5091856;28;20230;-67
2021/04/28 03:26:26;;;;;;;66.30;10.07;;;4.70;1.00;;;;;;5092063;28;20235;-67
2021/04/28 03:28:53;;;;;;;62.45;9.40;;;4.80;1.00;;;;;;5092101;28;20200;-67
2021/04/28 03:31:19;;;;;;;71.53;11.13;;;4.80;1.00;;;;;;5091900;28;20307;-67
2021/04/28 03:33:46;;;;;;;66.47;10.13;;;4.80;1.00;;;;;;5091506;28;20227;-67
2021/04/28 03:36:12;;;;;;;66.55;10.40;;;4.70;1.00;;;;;;5092186;28;20219;-67
2021/04/28 03:38:38;;;;;;;67.82;11.68;;;4.70;1.00;;;;;;5091410;28;20223;-67
2021/04/28 03:41:06;;;;;;;66.15;9.82;;;4.60;1.00;;;;;;5091874;28;20228;-67
2021/04/28 03:43:32;;;;;;;66.10;9.52;;;4.60;1.00;;;;;;5091267;28;20204;-67
2021/04/28 03:45:59;;;;;;;65.88;10.30;;;4.60;1.00;;;;;;5091645;28;20235;-68
2021/04/28 03:48:25;;;;;;;67.90;11.23;;;4.60;1.00;;;;;;5091916;28;20200;-68
2021/04/28 03:50:51;;;;;;;65.43;10.57;;;4.60;1.00;;;;;;5091552;28;20243;-68
2021/04/28 03:53:18;;;;;;;64.18;9.90;;;4.60;1.00;;;;;;5091524;28;20238;-67
2021/04/28 03:55:44;;;;;;;68.80;9.65;;;4.60;1.00;;;;;;5091198;28;20245;-68
2021/04/28 03:58:11;;;;;;;63.35;10.10;;;4.60;1.00;;;;;;5091585;28;20298;-68
2021/04/28 04:00:38;;;;;;;65.28;10.30;;;4.50;1.00;;;;;;5091659;28;20254;-67
2021/04/28 04:03:05;;;;;;;65.18;11.65;;;4.50;1.00;;;;;;5091375;28;20204;-68
2021/04/28 04:05:31;;;;;;;66.03;10.52;;;4.50;1.00;;;;;;5091438;28;20200;-68
2021/04/28 04:07:57;;;;;;;66.20;11.45;;;4.50;1.00;;;;;;5091763;28;20235;-68
2021/04/28 04:10:24;;;;;;;66.32;10.90;;;4.50;1.00;;;;;;5091447;28;20226;-68
2021/04/28 04:12:50;;;;;;;68.65;10.00;;;4.50;1.00;;;;;;5091159;28;20200;-67
2021/04/28 04:15:17;;;;;;;64.70;10.65;;;4.50;1.00;;;;;;5091606;28;20349;-67
2021/04/28 04:17:44;;;;;;;67.40;10.40;;;4.50;1.00;;;;;;5091437;28;20320;-68
2021/04/28 04:20:11;;;;;;;66.68;9.88;;;4.50;1.00;;;;;;5091532;28;20318;-68
2021/04/28 04:22:38;;;;;;;62.58;9.35;;;4.50;1.00;;;;;;5091274;28;20231;-68
2021/04/28 04:25:05;;;;;;;70.18;10.13;;;4.50;1.00;;;;;;5091400;28;20337;-68
2021/04/28 04:27:33;;;;;;;66.03;10.30;;;4.50;1.00;;;;;;5091526;28;20264;-68
2021/04/28 04:29:59;;;;;;;67.78;10.75;;;4.50;1.00;;;;;;5091624;28;20227;-68
2021/04/28 04:32:26;;;;;;;66.10;9.88;;;4.50;1.00;;;;;;5091287;28;20208;-68
2021/04/28 04:34:52;;;;;;;63.85;9.52;;;4.50;1.00;;;;;;5091284;28;20339;-68
2021/04/28 04:37:19;;;;;;;64.13;9.70;;;4.50;1.00;;;;;;5091306;28;20216;-68
2021/04/28 04:39:45;;;;;;;69.43;11.40;;;4.60;1.00;;;;;;5091252;28;20738;-68
2021/04/28 04:42:12;;;;;;;67.85;11.63;;;4.60;1.00;;;;;;5091286;28;20291;-68
2021/04/28 04:44:39;;;;;;;67.97;10.30;;;4.60;1.00;;;;;;5091311;28;20208;-68
2021/04/28 04:47:05;;;;;;;66.68;11.20;;;4.60;1.00;;;;;;5091195;28;20295;-68
2021/04/28 04:49:32;;;;;;;72.88;10.75;;;4.60;1.00;;;;;;5091243;28;20220;-68
2021/04/28 04:51:59;;;;;;;66.60;10.18;;;4.60;1.00;;;;;;5090933;28;20223;-68
2021/04/28 04:54:25;;;;;;;70.75;10.35;;;4.60;1.00;;;;;;5090920;28;20300;-67
2021/04/28 04:56:51;;;;;;;65.80;11.02;;;4.70;1.00;;;;;;5091263;28;20207;-68
2021/04/28 04:59:19;;;;;;;68.65;10.93;;;4.70;1.00;;;;;;5091064;28;20295;-68
2021/04/28 05:01:45;;;;;;;65.85;11.55;;;4.80;1.00;;;;;;5091256;28;20265;-68
2021/04/28 05:04:12;;;;;;;70.60;11.10;;;4.80;1.00;;;;;;5090805;28;20239;-68
2021/04/28 05:06:39;;;;;;;68.32;11.18;;;4.80;1.00;;;;;;5091635;28;20584;-68
2021/04/28 05:09:06;;;;;;;66.88;11.30;;;4.90;1.00;;;;;;5094501;28;20227;-68
2021/04/28 05:11:32;;;;;;;67.45;11.88;;;4.90;1.00;;;;;;5094514;28;20205;-67
2021/04/28 05:13:59;;;;;;;65.32;10.25;;;5.00;1.00;;;;;;5094447;28;20256;-68
2021/04/28 05:16:25;;;;;;;65.93;10.55;;;5.00;1.00;;;;;;5094550;28;20214;-68
2021/04/28 05:18:52;;;;;;;68.07;11.00;;;5.10;1.00;;;;;;5094518;28;20702;-68
2021/04/28 05:21:19;;;;;;;66.22;11.10;;;5.20;1.00;;;;;;5094559;28;20309;-68
2021/04/28 05:23:46;;;;;;;66.63;11.98;;;5.30;1.00;;;;;;5093858;28;20643;-67
2021/04/28 05:26:12;;;;;;;64.47;10.40;;;5.30;1.00;;;;;;5094352;28;20665;-68
2021/04/28 05:28:38;;;;;;;64.57;9.70;;;5.40;1.00;;;;;;5094520;28;20232;-68
2021/04/28 05:31:05;;;;;;;70.70;10.55;;;5.50;1.00;;;;;;5094418;28;20311;-68
2021/04/28 05:33:31;;;;;;;64.03;9.35;;;5.50;1.00;;;;;;5093710;28;20391;-68
2021/04/28 05:35:58;;;;;;;67.35;10.93;;;5.60;1.00;;;;;;5094038;28;20243;-68
2021/04/28 05:38:24;;;;;;;66.35;11.00;;;5.70;1.00;;;;;;5094093;28;20315;-68
2021/04/28 05:40:51;;;;;;;65.32;10.57;;;5.70;1.00;;;;;;5094085;28;20220;-68
2021/04/28 05:43:18;;;;;;;66.15;10.73;;;5.80;1.00;;;;;;5093820;28;20295;-68
2021/04/28 05:45:44;;;;;;;64.88;11.60;;;5.80;1.00;;;;;;5093838;28;20265;-68
2021/04/28 05:48:13;;;;;;;69.40;11.30;;;5.90;1.00;;;;;;5094044;28;20196;-68
2021/04/28 05:50:41;;;;;;;71.43;10.95;;;6.00;1.00;;;;;;5093660;28;20256;-68
2021/04/28 05:53:08;;;;;;;65.63;10.52;;;6.00;1.00;;;;;;5093591;28;20262;-68
2021/04/28 05:55:35;;;;;;;66.95;10.70;;;6.10;1.00;;;;;;5093821;28;20295;-68
2021/04/28 05:58:02;;;;;;;66.85;11.68;;;6.20;1.00;;;;;;5093645;28;20302;-68
2021/04/28 06:00:29;;;;;;;68.47;12.35;;;6.30;1.00;;;;;;5093748;28;20777;-68
2021/04/28 06:02:55;;;;;;;67.85;11.00;;;6.40;1.00;;;;;;5093538;28;20211;-68
2021/04/28 06:05:22;;;;;;;64.13;10.77;;;6.40;1.00;;;;;;5093335;28;20207;-68
2021/04/28 06:07:48;;;;;;;69.05;10.15;;;6.50;1.00;;;;;;5093682;28;20316;-68
2021/04/28 06:10:16;;;;;;;68.07;10.93;;;6.60;1.00;;;;;;5093725;28;20839;-67
2021/04/28 06:12:43;;;;;;;67.07;11.02;;;6.70;1.00;;;;;;5093583;28;20208;-67
2021/04/28 06:15:12;;;;;;;67.88;10.85;;;6.80;1.00;;;;;;5093357;28;20642;-67
2021/04/28 06:17:39;;;;;;;67.50;10.43;;;7.00;1.00;;;;;;5093115;28;20260;-67
2021/04/28 06:20:07;;;;;;;66.88;13.05;;;7.10;1.00;;;;;;5093625;28;20315;-67
2021/04/28 06:22:33;;;;;;;69.63;12.88;;;7.20;1.00;;;;;;5093257;28;20296;-67
2021/04/28 06:25:00;;;;;;;68.55;10.98;;;7.30;1.00;;;;;;5093123;28;20296;-68
2021/04/28 06:27:26;;;;;;;63.53;10.43;;;7.40;1.00;;;;;;5093341;28;20470;-67
2021/04/28 06:29:53;;;;;;;67.68;11.07;;;7.50;1.00;;;;;;5093025;28;20225;-68
2021/04/28 06:32:20;;;;;;;70.82;12.20;;;7.60;1.00;;;;;;5092637;28;20236;-67
2021/04/28 06:34:47;;;;;;;71.50;12.07;;;7.80;1.00;;;;;;5093077;28;20211;-67
2021/04/28 06:37:13;;;;;;;68.63;11.70;;;7.90;1.00;;;;;;5092826;28;20706;-67
2021/04/28 06:39:40;;;;;;;69.10;11.63;;;8.10;1.00;;;;;;5092978;28;20315;-67
2021/04/28 06:42:07;;;;;;;68.93;11.95;;;8.20;1.00;;;;;;5092805;28;20597;-67
2021/04/28 06:44:34;;;;;;;71.40;14.32;;;8.40;1.00;;;;;;5092817;28;20216;-68
2021/04/28 06:47:00;;;;;;;67.63;11.68;;;8.50;1.00;;;;;;5092686;28;20292;-67
2021/04/28 06:49:27;;;;;;;69.90;12.60;;;8.70;1.00;;;;;;5093038;28;20259;-67
2021/04/28 06:51:54;;;;;;;71.00;13.30;;;8.80;1.00;;;;;;5092292;28;20469;-67
2021/04/28 06:54:20;;;;;;;70.97;11.33;;;9.00;1.00;;;;;;5088933;28;20443;-67
2021/04/28 06:56:47;;;;;;;69.40;13.00;;;9.10;1.00;;;;;;5092356;28;20447;-67
2021/04/28 06:59:17;;;;;;;71.13;12.45;;;9.30;1.00;;;;;;5091999;28;20486;-67
2021/04/28 07:01:45;;;;;;;68.07;11.70;;;9.50;1.00;;;;;;5092216;28;20210;-66
2021/04/28 07:04:11;;;;;;;69.20;12.00;;;9.70;1.00;;;;;;5091770;28;20453;-67
2021/04/28 07:06:39;;;;;;;69.73;13.57;;;9.90;1.00;;;;;;5092350;28;20460;-67
2021/04/28 07:09:05;;;;;;;68.53;12.70;;;10.10;1.00;;;;;;5092206;28;20474;-67
2021/04/28 07:11:32;;;;;;;69.33;12.60;;;10.20;1.00;;;;;;5092254;28;20952;-67
2021/04/28 07:13:58;;;;;;;65.93;11.10;;;10.50;1.00;;;;;;5091380;28;20447;-68
2021/04/28 07:16:24;;;;;;;65.70;11.70;;;10.70;1.00;;;;;;5091184;28;20564;-67
2021/04/28 07:18:51;;;;;;;71.27;13.60;;;10.90;1.00;;;;;;5083978;28;20525;-67
2021/04/28 07:21:18;;;;;;;68.90;12.73;;;11.10;1.00;;;;;;5080059;28;20504;-67
2021/04/28 07:23:45;;;;;;;76.60;11.77;;;11.30;1.00;;;;;;5091321;28;20449;-67
2021/04/28 07:26:12;;;;;;;68.07;13.47;;;11.50;1.00;;;;;;5091967;28;20477;-67
2021/04/28 07:28:39;;;;;;;66.30;12.00;;;11.70;1.00;;;;;;5091624;28;20442;-67
2021/04/28 07:31:06;;;;;;;66.40;12.00;;;11.90;1.00;;;;;;5091349;28;20548;-67
2021/04/28 07:33:32;;;;;;;66.00;10.73;;;12.10;1.00;;;;;;5091748;28;20553;-67
2021/04/28 07:35:58;;;;;;;70.47;12.57;;;12.30;1.00;;;;;;5091754;28;20510;-67
2021/04/28 07:38:25;;;;;;;72.63;12.47;;;12.40;1.00;;;;;;5091640;28;20482;-68
2021/04/28 07:40:52;;;;;;;67.70;11.87;;;12.50;1.00;;;;;;5091800;28;20462;-67
2021/04/28 07:43:18;;;;;;;67.07;12.10;;;12.70;1.00;;;;;;5091553;28;20509;-67
2021/04/28 07:45:45;;;;;;;67.73;12.30;;;12.90;1.00;;;;;;5091719;28;20448;-67
2021/04/28 07:48:14;;;;;;;65.63;11.73;;;13.00;1.00;;;;;;5091838;28;20542;-67
2021/04/28 07:50:41;;;;;;;67.47;12.47;;;13.10;1.00;;;;;;5089153;28;20470;-67
2021/04/28 07:53:08;;;;;;;66.40;11.83;;;13.30;1.00;;;;;;5091144;28;20535;-67
2021/04/28 07:55:36;;;;;;;66.37;12.60;;;13.40;1.00;;;;;;5091283;28;20529;-68
2021/04/28 07:58:04;;;;;;;67.07;11.97;;;13.60;1.00;;;;;;5091957;28;20823;-67
2021/04/28 08:00:30;;;;;;;69.20;11.80;;;13.70;1.00;;;;;;5091591;28;20833;-68
2021/04/28 08:02:57;;;;;;;66.80;12.37;;;13.90;1.00;;;;;;5091344;28;20461;-68
2021/04/28 08:05:24;;;;;;;65.37;11.67;;;14.00;1.00;;;;;;5091388;28;20452;-68
2021/04/28 08:07:51;;;;;;;64.13;11.53;;;14.10;1.00;;;;;;5091618;28;20444;-68
2021/04/28 08:10:18;;;;;;;66.40;12.00;;;14.30;1.00;;;;;;5091248;28;20624;-68
2021/04/28 08:12:45;;;;;;;70.27;13.10;;;14.40;1.00;;;;;;5091143;28;20965;-67
2021/04/28 08:15:13;;;;;;;73.87;13.17;;;14.50;1.00;;;;;;5091360;28;20442;-67
2021/04/28 08:17:40;;;;;;;68.10;13.30;;;14.70;1.00;;;;;;5091393;28;20532;-67
2021/04/28 08:20:08;;;;;;;68.33;12.63;;;14.80;1.00;;;;;;5091355;28;20842;-67
2021/04/28 08:22:35;;;;;;;71.63;13.37;;;14.90;1.00;;;;;;5087853;28;20545;-68
2021/04/28 08:25:01;;;;;;;67.97;12.77;;;15.00;1.00;;;;;;5090750;28;20989;-67
2021/04/28 08:27:28;;;;;;;69.20;13.00;;;15.10;1.00;;;;;;5091502;28;20536;-67
2021/04/28 08:29:56;;;;;;;70.27;13.60;;;15.30;1.00;;;;;;5091404;28;20471;-66
2021/04/28 08:32:23;;;;;;;71.47;15.00;;;15.40;1.00;;;;;;5090886;28;20457;-67
2021/04/28 08:34:50;;;;;;;67.93;12.77;;;15.60;1.00;;;;;;5091116;28;20859;-67
2021/04/28 08:37:16;;;;;;;70.90;12.93;;;15.70;1.00;;;;;;5091032;28;20485;-67
2021/04/28 08:39:42;;;;;;;66.90;11.50;;;15.80;1.00;;;;;;5090853;28;20560;-67
2021/04/28 08:42:10;;;;;;;74.17;13.70;;;16.00;1.00;;;;;;5092377;28;20512;-67
2021/04/28 08:44:36;;;;;;;71.37;14.50;;;16.20;1.00;;;;;;5095025;28;21001;-68
2021/04/28 08:47:03;;;;;;;68.83;12.63;;;16.40;1.00;;;;;;5094950;28;20438;-68
2021/04/28 08:49:30;;;;;;;68.83;12.30;;;16.50;1.00;;;;;;5094966;28;20456;-67
2021/04/28 08:51:57;;;;;;;77.83;12.93;;;16.60;1.00;;;;;;5094366;28;20462;-67
2021/04/28 08:54:24;;;;;;;69.03;13.40;;;16.80;1.00;;;;;;5085831;28;20454;-67
2021/04/28 08:56:51;;;;;;;67.80;13.60;;;17.00;1.00;;;;;;5082874;28;20454;-67
2021/04/28 08:59:18;;;;;;;65.83;12.80;;;17.20;1.00;;;;;;5094743;28;20577;-67
2021/04/28 09:01:47;;;;;;;68.13;13.20;;;17.40;1.00;;;;;;5095108;28;20701;-68
2021/04/28 09:04:15;;;;;;;69.77;12.97;;;17.60;1.00;;;;;;5094254;28;20451;-67
2021/04/28 09:06:42;;;;;;;69.40;12.40;;;17.70;1.00;;;;;;5094574;28;20499;-67
2021/04/28 09:09:11;;;;;;;71.50;14.00;;;17.90;1.00;;;;;;5094747;28;20836;-67
2021/04/28 09:11:43;;;;;;;69.90;14.33;;;18.10;1.00;;;;;;5094643;28;21008;-66
2021/04/28 09:14:17;;;;;;;68.20;13.10;;;18.20;1.00;;;;;;5094013;28;20878;-66
2021/04/28 09:16:45;;;;;;;65.97;12.13;;;18.30;1.00;;;;;;5094506;28;20861;-67
2021/04/28 09:19:25;;;;;;;74.60;13.93;;;18.40;1.00;;;;;;5094249;28;20649;-66
2021/04/28 09:21:56;;;;;;;66.17;12.27;;;18.60;1.00;;;;;;5094427;28;20471;-67
2021/04/28 09:24:24;;;;;;;70.30;14.47;;;18.80;1.00;;;;;;5093450;28;20457;-67
2021/04/28 09:26:53;;;;;;;71.10;12.47;;;18.90;1.00;;;;;;5079223;28;20880;-68
2021/04/28 09:29:22;;;;;;;73.43;12.90;;;18.90;1.00;;;;;;5089360;28;20460;-68
2021/04/28 09:32:00;;;;;;;70.07;12.73;;;19.10;1.00;;;;;;5094502;28;20528;-68
2021/04/28 09:34:31;;;;;;;71.10;13.30;;;19.30;1.00;;;;;;5093924;28;20545;-67
2021/04/28 09:37:04;;;;;;;68.07;12.50;;;19.50;1.00;;;;;;5094074;28;20545;-68
2021/04/28 09:39:30;;;;;;;69.80;13.80;;;19.70;1.00;;;;;;5093780;28;20495;-68
2021/04/28 09:41:57;;;;;;;78.63;13.57;;;19.90;1.00;;;;;;5093476;28;20474;-68
2021/04/28 09:44:30;;;;;;;71.97;13.13;;;19.90;1.00;;;;;;5093749;28;20980;-68
2021/04/28 09:47:04;;;;;;;71.07;13.60;;;20.00;1.00;;;;;;5093993;28;20457;-68
2021/04/28 09:49:48;;;;;;;69.03;11.80;;;20.00;1.00;;;;;;5093776;28;20470;-68
2021/04/28 09:52:17;;;;;;;63.67;10.83;;;20.10;1.00;;;;;;5090572;28;20490;-68
2021/04/28 09:54:44;;;;;;;64.40;10.00;;;20.30;1.00;;;;;;5093322;28;20454;-68
2021/04/28 09:57:15;;;;;;;65.07;10.90;;;20.40;1.00;;;;;;5093519;28;20574;-68
2021/04/28 09:59:49;;;;;;;65.10;11.60;;;20.60;1.00;;;;;;5093351;28;20565;-68
2021/04/28 10:02:25;;;;;;;67.57;11.40;;;21.00;1.00;;;;;;5093388;28;20481;-66
2021/04/28 10:04:52;;;;;;;63.90;9.37;;;21.30;1.00;;;;;;5093299;28;20538;-65
2021/04/28 10:07:26;;;;;;;65.60;9.20;;;21.50;1.00;;;;;;5093699;28;20543;-67
2021/04/28 10:09:53;;;;;;;65.17;10.37;;;22.30;1.00;;;;;;5093279;28;20833;-67
2021/04/28 10:12:21;;;;;;;66.30;11.30;;;23.80;1.00;;;;;;5093197;28;20457;-67
2021/04/28 10:14:47;;;;;;;67.60;12.57;;;25.50;1.00;;;;;;5093041;28;20457;-67
2021/04/28 10:17:16;;;;;;;66.20;12.40;;;26.60;1.00;;;;;;5093453;28;20542;-67
2021/04/28 10:19:43;;;;;;;68.90;12.00;;;27.70;1.00;;;;;;5093192;28;20484;-68
2021/04/28 10:22:12;;;;;;;64.00;10.23;;;28.40;1.00;;;;;;5091994;28;20532;-68
2021/04/28 10:24:40;;;;;;;67.33;11.47;;;29.20;1.00;;;;;;5090538;28;20494;-68
2021/04/28 10:27:08;;;;;;;61.97;9.90;;;30.00;1.00;;;;;;5093075;28;20550;-68
2021/04/28 10:29:37;;;;;;;66.83;11.83;;;30.70;1.00;;;;;;5092818;28;20460;-66
2021/04/28 10:32:07;;;;;;;64.00;11.20;;;31.20;1.00;;;;;;5092344;28;20455;-67
2021/04/28 10:34:39;;;;;;;64.13;11.30;;;31.40;1.00;;;;;;5092809;28;20481;-67
2021/04/28 10:37:06;;;;;;;63.30;10.27;;;31.80;1.00;;;;;;5092748;28;20462;-67
2021/04/28 10:39:33;;;;;;;64.87;9.90;;;32.00;1.00;;;;;;5092723;28;20488;-68
2021/04/28 10:42:01;;;;;;;67.03;11.17;;;32.50;1.00;;;;;;5092384;28;20497;-68
2021/04/28 10:44:44;;;;;;;64.40;11.13;;;33.00;1.00;;;;;;5092903;28;20482;-67
2021/04/28 10:47:27;;;;;;;64.10;11.03;;;33.20;1.00;;;;;;5092527;28;20930;-67
2021/04/28 10:50:01;;;;;;;63.30;10.23;;;33.30;1.00;;;;;;5092972;28;20474;-68
2021/04/28 10:52:28;;;;;;;66.87;11.70;;;33.60;1.00;;;;;;5092090;28;20468;-67
2021/04/28 10:54:54;;;;;;;62.90;10.50;;;34.10;1.00;;;;;;5088292;28;20934;-68
2021/04/28 10:57:34;;;;;;;64.37;9.40;;;34.60;1.00;;;;;;5077081;28;20490;-68
2021/04/28 11:00:01;;;;;;;63.50;10.27;;;34.70;1.00;;;;;;5072192;28;20499;-68
2021/04/28 11:02:31;;;;;;;61.80;9.70;;;34.90;1.00;;;;;;5071798;28;20538;-67
2021/04/28 11:05:05;;;;;;;63.60;9.43;;;35.00;1.00;;;;;;5071040;28;20483;-68
2021/04/28 11:07:42;;;;;;;61.90;10.07;;;34.70;1.00;;;;;;5071794;28;20527;-68
2021/04/28 11:10:25;;;;;;;63.70;9.27;;;34.40;1.00;;;;;;5071774;28;20471;-68
2021/04/28 11:13:06;;;;;;;62.40;10.37;;;34.70;1.00;;;;;;5071766;28;20486;-68
2021/04/28 11:15:50;;;;;;;62.70;9.87;;;35.30;1.00;;;;;;5071741;28;20486;-68
2021/04/28 11:18:33;;;;;;;61.70;9.10;;;36.00;1.00;;;;;;5071810;28;21052;-68
2021/04/28 11:21:25;;;;;;;60.30;8.50;;;36.50;1.00;;;;;;5071871;28;20645;-68
2021/04/28 11:24:05;;;;;;;59.90;8.10;;;37.20;1.00;;;;;;5071396;28;20501;-68
2021/04/28 11:26:34;;;;;;;61.97;8.40;;;37.40;1.00;;;;;;5069469;28;20997;-68
2021/04/28 11:29:03;;;;;;;68.40;9.00;;;36.70;1.00;;;;;;5091764;28;20577;-68
2021/04/28 11:31:43;;;;;;;60.60;8.33;;;35.50;1.00;;;;;;5091794;28;20466;-68
2021/04/28 11:34:34;;;;;;;64.00;9.13;;;33.90;1.00;;;;;;5091462;28;20478;-66
2021/04/28 11:37:02;;;;;;;62.10;8.73;;;32.30;1.00;;;;;;5076857;28;20458;-66
2021/04/28 11:39:36;;;;;;;61.10;8.37;;;31.10;1.00;;;;;;5091781;28;20549;-68
2021/04/28 11:42:07;;;;;;;63.33;8.50;;;30.20;1.00;;;;;;5091618;28;20439;-66
2021/04/28 11:44:36;;;;;;;63.10;9.83;;;29.50;1.00;;;;;;5090965;28;20443;-69
2021/04/28 11:47:10;;;;;;;62.40;8.97;;;28.80;1.00;;;;;;5091415;28;20938;-70
2021/04/28 11:49:40;;;;;;;62.40;9.90;;;28.10;1.00;;;;;;5091859;28;20490;-69
2021/04/28 11:52:06;;;;;;;67.40;9.70;;;27.60;1.00;;;;;;5091238;28;20493;-67
2021/04/28 11:54:34;;;;;;;62.93;8.77;;;27.00;1.00;;;;;;5091445;28;20479;-66
2021/04/28 11:57:00;;;;;;;62.17;8.40;;;26.50;1.00;;;;;;5091491;28;20461;-67
2021/04/28 11:59:28;;;;;;;62.27;9.20;;;26.20;1.00;;;;;;5091425;28;20498;-69
2021/04/28 12:01:56;;;;;;;64.30;9.63;;;26.20;1.00;;;;;;5091639;28;20455;-67
2021/04/28 12:04:32;;;;;;;62.67;8.17;;;26.30;1.00;;;;;;5091681;28;20536;-68
2021/04/28 12:07:00;;;;;;;63.37;9.33;;;26.40;1.00;;;;;;5076628;28;20460;-68
2021/04/28 12:09:40;;;;;;;63.10;8.47;;;26.50;1.00;;;;;;5070153;28;20487;-68
2021/04/28 12:12:10;;;;;;;63.90;8.40;;;26.40;1.00;;;;;;5069333;28;20466;-68
2021/04/28 12:14:38;;;;;;;63.40;8.27;;;26.40;1.00;;;;;;5071496;28;20443;-67
2021/04/28 12:17:06;;;;;;;62.10;7.90;;;26.50;1.00;;;;;;5074592;28;20457;-67
2021/04/28 12:19:32;;;;;;;62.30;8.03;;;26.50;1.00;;;;;;5075320;28;20551;-67
2021/04/28 12:22:01;;;;;;;62.77;7.83;;;26.60;1.00;;;;;;5073832;28;20495;-67
2021/04/28 12:24:30;;;;;;;60.50;7.27;;;26.70;1.00;;;;;;5075232;28;20530;-67
2021/04/28 12:27:08;;;;;;;60.30;7.10;;;26.80;1.00;;;;;;5075188;28;20447;-68
2021/04/28 12:29:35;;;;;;;62.27;8.27;;;27.00;1.00;;;;;;5075327;28;20583;-68
2021/04/28 12:32:01;;;;;;;64.03;7.80;;;27.30;1.00;;;;;;5075104;28;20544;-68
2021/04/28 12:34:29;;;;;;;61.77;8.00;;;27.40;1.00;;;;;;5074902;28;20988;-68
2021/04/28 12:37:10;;;;;;;61.20;7.53;;;27.40;1.00;;;;;;5075193;28;20536;-68
2021/04/28 12:39:37;;;;;;;60.23;6.83;;;27.80;1.00;;;;;;5074697;28;20591;-68
2021/04/28 12:42:04;;;;;;;61.70;8.73;;;28.70;1.00;;;;;;5073599;28;20448;-68
2021/04/28 12:44:30;;;;;;;59.83;7.00;;;29.90;1.00;;;;;;5074967;28;20530;-68
2021/04/28 12:46:57;;;;;;;61.40;7.13;;;31.30;1.00;;;;;;5074906;28;20547;-68
2021/04/28 12:49:24;;;;;;;60.27;7.00;;;32.70;1.00;;;;;;5074674;28;20569;-68
2021/04/28 12:51:56;;;;;;;60.57;7.27;;;34.10;1.00;;;;;;5074446;28;20463;-68